createdAt,value
2016-11-23T00:00:53.699Z,1003.77
2016-11-23T00:02:27.075Z,1003.67
2016-11-23T00:04:00.861Z,1003.6
2016-11-23T00:05:34.626Z,1003.51
2016-11-23T00:07:07.843Z,1003.44
2016-11-23T00:09:01.796Z,1003.45
2016-11-23T00:10:35.920Z,1003.48
2016-11-23T00:12:10.182Z,1003.54
2016-11-23T00:13:43.855Z,1003.54
2016-11-23T00:15:17.315Z,1003.52
2016-11-23T00:16:51.321Z,1003.55
2016-11-23T00:18:24.883Z,1003.62
2016-11-23T00:19:58.481Z,1003.58
2016-11-23T00:21:32.117Z,1003.6
2016-11-23T00:23:05.815Z,1003.63
2016-11-23T00:24:40.036Z,1003.65
2016-11-23T00:26:13.704Z,1003.74
2016-11-23T00:27:47.534Z,1003.84
2016-11-23T00:29:41.429Z,1003.94
2016-11-23T00:31:15.506Z,1003.95
2016-11-23T00:32:49.179Z,1003.98
2016-11-23T00:34:22.595Z,1003.98
2016-11-23T00:35:56.094Z,1003.9
2016-11-23T00:37:29.844Z,1003.83
2016-11-23T00:39:04.189Z,1003.85
2016-11-23T00:40:37.509Z,1003.86
2016-11-23T00:42:11.187Z,1003.9
2016-11-23T00:43:45.181Z,1003.91
2016-11-23T00:45:19.148Z,1003.96
2016-11-23T00:46:53.233Z,1004.02
2016-11-23T00:48:26.810Z,1004.02
2016-11-23T00:50:00.819Z,1004.03
2016-11-23T00:51:34.421Z,1004
2016-11-23T00:53:02.614Z,1003.89
2016-11-23T00:54:35.777Z,1003.8
2016-11-23T00:56:09.669Z,1003.74
2016-11-23T00:57:43.727Z,1003.67
2016-11-23T00:59:17.046Z,1003.7
2016-11-23T01:00:51.183Z,1003.68
2016-11-23T01:02:25.054Z,1003.67
2016-11-23T01:03:59.070Z,1003.71
2016-11-23T01:05:32.864Z,1003.71
2016-11-23T01:07:06.597Z,1003.74
2016-11-23T01:08:40.566Z,1003.8
2016-11-23T01:10:35.637Z,1003.81
2016-11-23T01:12:08.837Z,1003.8
2016-11-23T01:13:42.782Z,1003.86
2016-11-23T01:15:16.200Z,1003.88
2016-11-23T01:16:45.233Z,1003.95
2016-11-23T01:17:59.280Z,1003.93
2016-11-23T01:19:55.033Z,1003.91
2016-11-23T01:21:28.934Z,1004.01
2016-11-23T01:23:03.745Z,1003.98
2016-11-23T01:24:37.540Z,1003.93
2016-11-23T01:26:38.716Z,1003.95
2016-11-23T01:28:11.690Z,1003.98
2016-11-23T01:29:48.007Z,1004.03
2016-11-23T01:31:21.778Z,1004.11
2016-11-23T01:32:55.179Z,1004.11
2016-11-23T01:34:28.397Z,1004.16
2016-11-23T01:36:01.616Z,1004.13
2016-11-23T01:37:35.394Z,1004.13
2016-11-23T01:39:09.185Z,1004.09
2016-11-23T01:40:42.480Z,1004.12
2016-11-23T01:42:15.720Z,1004.07
2016-11-23T01:43:49.896Z,1004.11
2016-11-23T01:45:23.571Z,1004.09
2016-11-23T01:46:57.049Z,1004.1
2016-11-23T01:48:30.837Z,1004.06
2016-11-23T01:49:59.593Z,1004.06
2016-11-23T01:51:33.722Z,1004.1
2016-11-23T01:53:06.840Z,1004.12
2016-11-23T01:54:40.068Z,1004.14
2016-11-23T01:56:13.831Z,1004.16
2016-11-23T01:57:47.579Z,1004.1
2016-11-23T01:59:20.789Z,1004.1
2016-11-23T02:00:54.011Z,1004.04
2016-11-23T02:02:27.545Z,1004.01
2016-11-23T02:04:28.756Z,1004.01
2016-11-23T02:06:02.599Z,1003.98
2016-11-23T02:07:35.978Z,1003.93
2016-11-23T02:09:09.382Z,1003.94
2016-11-23T02:10:42.672Z,1003.98
2016-11-23T02:12:16.797Z,1003.96
2016-11-23T02:13:49.913Z,1003.99
2016-11-23T02:15:23.845Z,1004
2016-11-23T02:16:57.264Z,1003.98
2016-11-23T02:18:30.459Z,1004.01
2016-11-23T02:20:04.022Z,1004.02
2016-11-23T02:21:37.947Z,1004.02
2016-11-23T02:23:11.745Z,1004.02
2016-11-23T02:24:44.978Z,1004.08
2016-11-23T02:26:18.272Z,1004.11
2016-11-23T02:27:52.190Z,1004.1
2016-11-23T02:29:44.981Z,1004.09
2016-11-23T02:31:18.719Z,1004.09
2016-11-23T02:32:52.073Z,1004.1
2016-11-23T02:34:25.895Z,1004.16
2016-11-23T02:35:59.575Z,1004.18
2016-11-23T02:37:33.061Z,1004.21
2016-11-23T02:39:06.255Z,1004.23
2016-11-23T02:40:39.726Z,1004.12
2016-11-23T02:42:41.101Z,1004.12
2016-11-23T02:44:10.884Z,1004.11
2016-11-23T02:45:25.057Z,1004.11
2016-11-23T02:46:58.432Z,1004.17
2016-11-23T02:48:53.831Z,1004.13
2016-11-23T02:50:27.486Z,1004.11
2016-11-23T02:52:00.433Z,1004.08
2016-11-23T02:53:33.905Z,1004.06
2016-11-23T02:55:07.351Z,1004.06
2016-11-23T02:56:40.886Z,1004.05
2016-11-23T02:58:14.456Z,1004.08
2016-11-23T02:59:48.040Z,1004.1
2016-11-23T03:01:21.441Z,1004.12
2016-11-23T03:02:55.375Z,1004.12
2016-11-23T03:04:28.536Z,1004.19
2016-11-23T03:06:01.830Z,1004.2
2016-11-23T03:07:35.538Z,1004.19
2016-11-23T03:10:44.410Z,1004.28
2016-11-23T03:12:12.963Z,1004.33
2016-11-23T03:13:42.121Z,1004.43
2016-11-23T03:15:16.243Z,1004.45
2016-11-23T03:16:49.712Z,1004.44
2016-11-23T03:18:23.392Z,1004.47
2016-11-23T03:19:56.975Z,1004.48
2016-11-23T03:21:30.313Z,1004.45
2016-11-23T03:23:04.070Z,1004.53
2016-11-23T03:24:37.619Z,1004.57
2016-11-23T03:26:11.773Z,1004.59
2016-11-23T03:27:45.330Z,1004.68
2016-11-23T03:29:19.644Z,1004.74
2016-11-23T03:30:53.330Z,1004.78
2016-11-23T03:32:27.000Z,1004.77
2016-11-23T03:34:00.567Z,1004.76
2016-11-23T03:35:34.121Z,1004.78
2016-11-23T03:37:08.414Z,1004.79
2016-11-23T03:38:42.141Z,1004.79
2016-11-23T03:40:15.779Z,1004.75
2016-11-23T03:41:49.535Z,1004.71
2016-11-23T03:43:43.299Z,1004.64
2016-11-23T03:45:16.928Z,1004.6
2016-11-23T03:46:50.792Z,1004.55
2016-11-23T03:48:24.536Z,1004.51
2016-11-23T03:49:58.938Z,1004.49
2016-11-23T03:51:33.340Z,1004.49
2016-11-23T03:53:06.629Z,1004.46
2016-11-23T03:55:07.352Z,1004.43
2016-11-23T03:56:41.109Z,1004.42
2016-11-23T03:58:09.759Z,1004.45
2016-11-23T03:59:24.034Z,1004.46
2016-11-23T04:01:16.686Z,1004.47
2016-11-23T04:02:50.481Z,1004.49
2016-11-23T04:04:24.018Z,1004.51
2016-11-23T04:08:40.257Z,1004.5
2016-11-23T04:10:14.046Z,1004.54
2016-11-23T04:11:47.214Z,1004.52
2016-11-23T04:13:20.445Z,1004.54
2016-11-23T04:14:54.111Z,1004.56
2016-11-23T04:16:46.994Z,1004.6
2016-11-23T04:18:20.229Z,1004.62
2016-11-23T04:19:53.972Z,1004.65
2016-11-23T04:21:27.711Z,1004.65
2016-11-23T04:23:01.396Z,1004.61
2016-11-23T04:24:34.804Z,1004.66
2016-11-23T04:26:08.455Z,1004.69
2016-11-23T04:27:44.764Z,1004.71
2016-11-23T04:29:18.098Z,1004.61
2016-11-23T04:30:52.275Z,1004.62
2016-11-23T04:32:21.827Z,1004.6
2016-11-23T04:33:58.445Z,1004.65
2016-11-23T04:35:53.696Z,1004.69
2016-11-23T04:37:27.335Z,1004.74
2016-11-23T04:39:00.765Z,1004.78
2016-11-23T04:40:30.854Z,1004.79
2016-11-23T04:41:45.388Z,1004.76
2016-11-23T04:45:20.366Z,1004.75
2016-11-23T04:46:54.137Z,1004.78
2016-11-23T04:48:28.222Z,1004.75
2016-11-23T04:50:21.519Z,1004.81
2016-11-23T04:51:55.206Z,1004.82
2016-11-23T04:53:29.002Z,1004.84
2016-11-23T04:55:03.087Z,1004.77
2016-11-23T04:56:36.390Z,1004.8
2016-11-23T04:58:10.345Z,1004.84
2016-11-23T04:59:44.346Z,1004.84
2016-11-23T05:01:18.752Z,1004.85
2016-11-23T05:02:51.792Z,1004.86
2016-11-23T05:04:25.391Z,1004.81
2016-11-23T05:05:59.065Z,1004.77
2016-11-23T05:07:33.014Z,1004.8
2016-11-23T05:09:06.617Z,1004.83
2016-11-23T05:10:40.300Z,1004.86
2016-11-23T05:12:14.294Z,1004.92
2016-11-23T05:14:07.553Z,1004.95
2016-11-23T05:15:41.359Z,1004.95
2016-11-23T05:17:14.540Z,1004.92
2016-11-23T05:18:48.063Z,1004.92
2016-11-23T05:20:22.033Z,1004.93
2016-11-23T05:21:55.330Z,1004.9
2016-11-23T05:23:28.925Z,1004.89
2016-11-23T05:25:02.503Z,1004.9
2016-11-23T05:27:03.904Z,1004.86
2016-11-23T05:28:38.149Z,1004.86
2016-11-23T05:30:11.751Z,1004.84
2016-11-23T05:34:16.210Z,1004.94
2016-11-23T05:35:49.804Z,1004.93
2016-11-23T05:37:23.321Z,1004.95
2016-11-23T05:38:56.286Z,1004.98
2016-11-23T05:40:30.014Z,1005.05
2016-11-23T05:42:03.528Z,1005.11
2016-11-23T05:43:36.860Z,1005.14
2016-11-23T05:45:10.351Z,1005.18
2016-11-23T05:46:43.956Z,1005.19
2016-11-23T05:48:17.872Z,1005.22
2016-11-23T05:49:51.523Z,1005.21
2016-11-23T05:51:25.245Z,1005.23
2016-11-23T05:55:01.935Z,1005.18
2016-11-23T05:56:35.630Z,1005.21
2016-11-23T05:58:08.633Z,1005.22
2016-11-23T05:59:41.939Z,1005.26
2016-11-23T06:01:15.996Z,1005.31
2016-11-23T06:02:49.242Z,1005.25
2016-11-23T06:04:22.752Z,1005.24
2016-11-23T06:05:56.010Z,1005.25
2016-11-23T06:07:51.684Z,1005.26
2016-11-23T06:09:26.391Z,1005.23
2016-11-23T06:11:29.126Z,1005.25
2016-11-23T06:13:04.225Z,1005.22
2016-11-23T06:15:09.487Z,1005.26
2016-11-23T06:16:48.521Z,1005.28
2016-11-23T06:19:12.846Z,1005.35
2016-11-23T06:20:55.488Z,1005.33
2016-11-23T06:23:22.888Z,1005.3
2016-11-23T06:25:02.686Z,1005.27
2016-11-23T06:26:59.615Z,1005.27
2016-11-23T06:28:38.497Z,1005.27
2016-11-23T06:30:15.580Z,1005.25
2016-11-23T06:32:11.973Z,1005.33
2016-11-23T06:33:48.723Z,1005.33
2016-11-23T06:35:22.826Z,1005.4
2016-11-23T06:36:56.633Z,1005.4
2016-11-23T06:38:51.429Z,1005.48
2016-11-23T06:40:25.245Z,1005.46
2016-11-23T06:41:58.768Z,1005.5
2016-11-23T06:43:32.989Z,1005.56
2016-11-23T06:45:07.417Z,1005.54
2016-11-23T06:46:42.838Z,1005.53
2016-11-23T06:48:16.686Z,1005.51
2016-11-23T06:49:50.414Z,1005.47
2016-11-23T06:51:23.702Z,1005.5
2016-11-23T06:52:57.212Z,1005.54
2016-11-23T06:54:31.243Z,1005.54
2016-11-23T06:56:04.442Z,1005.53
2016-11-23T06:57:38.012Z,1005.54
2016-11-23T06:59:11.776Z,1005.54
2016-11-23T07:01:04.815Z,1005.56
2016-11-23T07:02:38.509Z,1005.53
2016-11-23T07:04:12.034Z,1005.53
2016-11-23T07:05:45.580Z,1005.52
2016-11-23T07:07:19.308Z,1005.49
2016-11-23T07:08:53.037Z,1005.46
2016-11-23T07:10:21.362Z,1005.5
2016-11-23T07:11:35.317Z,1005.56
2016-11-23T07:13:28.487Z,1005.6
2016-11-23T07:17:36.831Z,1005.66
2016-11-23T07:19:09.938Z,1005.77
2016-11-23T07:20:43.127Z,1005.82
2016-11-23T07:22:16.206Z,1005.87
2016-11-23T07:23:49.763Z,1005.91
2016-11-23T07:25:23.233Z,1005.92
2016-11-23T07:26:56.610Z,1005.94
2016-11-23T07:28:29.937Z,1005.95
2016-11-23T07:30:03.561Z,1005.91
2016-11-23T07:31:36.919Z,1005.95
2016-11-23T07:33:10.591Z,1005.91
2016-11-23T07:34:43.887Z,1005.96
2016-11-23T07:36:17.154Z,1006
2016-11-23T07:37:50.696Z,1006.04
2016-11-23T07:39:23.974Z,1006.02
2016-11-23T07:40:57.283Z,1006.07
2016-11-23T07:42:30.988Z,1006.11
2016-11-23T07:44:04.616Z,1006.12
2016-11-23T07:45:38.589Z,1006.14
2016-11-23T07:47:34.608Z,1006.08
2016-11-23T07:49:08.070Z,1006.04
2016-11-23T07:50:43.568Z,1006.04
2016-11-23T07:52:17.097Z,1005.98
2016-11-23T07:53:50.301Z,1006.02
2016-11-23T07:55:24.194Z,1006.04
2016-11-23T07:56:57.793Z,1006.04
2016-11-23T07:58:31.344Z,1006.03
2016-11-23T08:00:04.442Z,1006.03
2016-11-23T08:01:37.751Z,1006.02
2016-11-23T08:03:11.261Z,1005.97
2016-11-23T08:04:44.719Z,1005.96
2016-11-23T08:06:18.202Z,1005.92
2016-11-23T08:07:51.504Z,1005.96
2016-11-23T08:09:25.062Z,1005.95
2016-11-23T08:10:58.822Z,1005.97
2016-11-23T08:12:32.105Z,1005.97
2016-11-23T08:14:06.036Z,1005.96
2016-11-23T08:20:07.214Z,1005.88
2016-11-23T08:21:40.604Z,1005.89
2016-11-23T08:23:13.623Z,1005.95
2016-11-23T08:24:47.190Z,1006.01
2016-11-23T08:28:26.594Z,1006.13
2016-11-23T08:29:59.750Z,1006.18
2016-11-23T08:31:33.475Z,1006.18
2016-11-23T08:33:06.801Z,1006.22
2016-11-23T08:34:40.131Z,1006.22
2016-11-23T08:36:13.305Z,1006.23
2016-11-23T08:37:46.989Z,1006.19
2016-11-23T08:39:20.703Z,1006.17
2016-11-23T08:40:54.632Z,1006.16
2016-11-23T08:42:27.714Z,1006.17
2016-11-23T08:44:00.818Z,1006.12
2016-11-23T08:45:33.913Z,1006.12
2016-11-23T08:49:40.564Z,1006.13
2016-11-23T08:51:14.220Z,1006.12
2016-11-23T08:52:48.305Z,1006.16
2016-11-23T08:54:22.315Z,1006.17
2016-11-23T08:55:56.113Z,1006.17
2016-11-23T08:57:29.674Z,1006.17
2016-11-23T08:59:05.158Z,1006.17
2016-11-23T09:00:57.889Z,1006.12
2016-11-23T09:02:31.510Z,1006.08
2016-11-23T09:04:05.432Z,1006.14
2016-11-23T09:05:39.526Z,1006.14
2016-11-23T09:07:13.019Z,1006.15
2016-11-23T09:08:47.495Z,1006.15
2016-11-23T09:10:48.978Z,1006.26
2016-11-23T09:12:23.954Z,1006.31
2016-11-23T09:13:57.588Z,1006.28
2016-11-23T09:15:32.261Z,1006.36
2016-11-23T09:17:06.606Z,1006.38
2016-11-23T09:18:40.304Z,1006.38
2016-11-23T09:25:24.852Z,1006.3
2016-11-23T09:26:58.281Z,1006.29
2016-11-23T09:28:31.623Z,1006.27
2016-11-23T09:30:05.043Z,1006.34
2016-11-23T09:31:38.660Z,1006.39
2016-11-23T09:33:34.099Z,1006.43
2016-11-23T09:35:07.658Z,1006.47
2016-11-23T09:36:41.573Z,1006.47
2016-11-23T09:38:15.071Z,1006.51
2016-11-23T09:39:48.678Z,1006.49
2016-11-23T09:41:21.904Z,1006.48
2016-11-23T09:42:55.569Z,1006.46
2016-11-23T09:44:24.896Z,1006.46
2016-11-23T09:54:49.962Z,1006.47
2016-11-23T09:56:23.495Z,1006.43
2016-11-23T09:57:56.768Z,1006.41
2016-11-23T09:59:30.338Z,1006.38
2016-11-23T10:01:03.754Z,1006.41
2016-11-23T10:03:04.959Z,1006.48
2016-11-23T10:05:00.921Z,1006.54
2016-11-23T10:06:14.892Z,1006.52
2016-11-23T10:08:08.266Z,1006.53
2016-11-23T10:09:42.242Z,1006.56
2016-11-23T10:11:15.575Z,1006.6
2016-11-23T10:12:49.456Z,1006.56
2016-11-23T10:14:24.060Z,1006.59
2016-11-23T10:15:57.125Z,1006.53
2016-11-23T10:17:30.453Z,1006.54
2016-11-23T10:19:03.912Z,1006.55
2016-11-23T10:20:37.783Z,1006.48
2016-11-23T10:22:11.056Z,1006.37
2016-11-23T10:23:39.583Z,1006.39
2016-11-23T10:25:09.414Z,1006.34
2016-11-23T10:26:24.310Z,1006.33
2016-11-23T10:28:17.390Z,1006.3
2016-11-23T10:29:50.957Z,1006.27
2016-11-23T10:31:24.857Z,1006.28
2016-11-23T10:32:58.697Z,1006.29
2016-11-23T10:34:32.442Z,1006.31
2016-11-23T10:36:05.605Z,1006.31
2016-11-23T10:37:38.905Z,1006.37
2016-11-23T10:39:07.444Z,1006.42
2016-11-23T10:40:41.281Z,1006.42
2016-11-23T10:42:14.449Z,1006.46
2016-11-23T10:43:48.457Z,1006.48
2016-11-23T10:45:22.747Z,1006.47
2016-11-23T10:46:56.063Z,1006.5
2016-11-23T10:48:29.360Z,1006.48
2016-11-23T10:50:03.187Z,1006.35
2016-11-23T10:51:36.843Z,1006.32
2016-11-23T10:53:10.219Z,1006.32
2016-11-23T10:54:43.995Z,1006.28
2016-11-23T10:56:17.253Z,1006.32
2016-11-23T10:57:46.329Z,1006.34
2016-11-23T10:59:19.682Z,1006.35
2016-11-23T11:00:52.615Z,1006.29
2016-11-23T11:02:26.367Z,1006.29
2016-11-23T11:04:00.167Z,1006.31
2016-11-23T11:05:33.828Z,1006.27
2016-11-23T11:07:07.409Z,1006.3
2016-11-23T11:08:40.582Z,1006.27
2016-11-23T11:10:14.363Z,1006.27
2016-11-23T11:11:47.980Z,1006.18
2016-11-23T11:13:21.323Z,1006.17
2016-11-23T11:14:56.716Z,1006.14
2016-11-23T11:16:52.547Z,1006.15
2016-11-23T11:18:22.444Z,1006.17
2016-11-23T11:19:36.769Z,1006.19
2016-11-23T11:21:09.677Z,1006.17
2016-11-23T11:22:43.256Z,1006.16
2016-11-23T11:24:16.296Z,1006.13
2016-11-23T11:26:09.116Z,1006.05
2016-11-23T11:27:42.659Z,1006.08
2016-11-23T11:29:15.689Z,1006.02
2016-11-23T11:30:49.174Z,1005.99
2016-11-23T11:32:23.095Z,1005.98
2016-11-23T11:33:56.889Z,1005.93
2016-11-23T11:35:30.682Z,1005.93
2016-11-23T11:37:03.808Z,1005.94
2016-11-23T11:38:37.399Z,1005.92
2016-11-23T11:40:11.333Z,1005.87
2016-11-23T11:41:45.088Z,1005.9
2016-11-23T11:43:18.314Z,1005.85
2016-11-23T11:44:52.340Z,1005.85
2016-11-23T11:46:25.290Z,1005.83
2016-11-23T11:47:58.956Z,1005.82
2016-11-23T11:49:32.178Z,1005.8
2016-11-23T11:51:05.764Z,1005.71
2016-11-23T11:52:39.283Z,1005.76
2016-11-23T11:54:12.894Z,1005.75
2016-11-23T11:55:45.951Z,1005.71
2016-11-23T11:57:20.284Z,1005.74
2016-11-23T11:58:53.560Z,1005.76
2016-11-23T12:00:27.036Z,1005.78
2016-11-23T12:02:01.048Z,1005.78
2016-11-23T12:03:34.814Z,1005.74
2016-11-23T12:05:08.816Z,1005.76
2016-11-23T12:06:42.395Z,1005.78
2016-11-23T12:08:35.507Z,1005.76
2016-11-23T12:10:09.420Z,1005.75
2016-11-23T12:11:42.785Z,1005.81
2016-11-23T12:13:12.067Z,1005.73
2016-11-23T12:14:26.563Z,1005.74
2016-11-23T12:15:59.946Z,1005.74
2016-11-23T12:17:34.739Z,1005.73
2016-11-23T12:19:28.754Z,1005.7
2016-11-23T12:21:01.680Z,1005.68
2016-11-23T12:22:34.726Z,1005.68
2016-11-23T12:24:08.097Z,1005.65
2016-11-23T12:25:42.366Z,1005.59
2016-11-23T12:27:15.889Z,1005.6
2016-11-23T12:28:49.191Z,1005.62
2016-11-23T12:30:22.748Z,1005.62
2016-11-23T12:31:56.284Z,1005.56
2016-11-23T12:35:34.334Z,1005.57
2016-11-23T12:37:08.290Z,1005.51
2016-11-23T12:38:41.890Z,1005.56
2016-11-23T12:40:15.587Z,1005.48
2016-11-23T12:41:49.072Z,1005.52
2016-11-23T12:43:22.874Z,1005.47
2016-11-23T12:44:57.025Z,1005.48
2016-11-23T12:46:30.330Z,1005.45
2016-11-23T12:48:04.161Z,1005.42
2016-11-23T12:49:37.560Z,1005.48
2016-11-23T12:51:06.504Z,1005.55
2016-11-23T12:52:42.292Z,1005.53
2016-11-23T12:54:16.052Z,1005.53
2016-11-23T12:55:49.915Z,1005.57
2016-11-23T12:57:23.776Z,1005.54
2016-11-23T12:58:57.823Z,1005.55
2016-11-23T13:00:31.251Z,1005.5
2016-11-23T13:02:04.907Z,1005.5
2016-11-23T13:05:41.396Z,1005.44
2016-11-23T13:07:14.818Z,1005.44
2016-11-23T13:08:48.101Z,1005.43
2016-11-23T13:10:21.670Z,1005.44
2016-11-23T13:11:55.060Z,1005.45
2016-11-23T13:13:28.380Z,1005.46
2016-11-23T13:15:23.760Z,1005.51
2016-11-23T13:16:58.176Z,1005.51
2016-11-23T13:18:31.455Z,1005.55
2016-11-23T13:20:05.691Z,1005.47
2016-11-23T13:21:39.310Z,1005.48
2016-11-23T13:23:13.853Z,1005.5
2016-11-23T13:24:47.504Z,1005.37
2016-11-23T13:26:21.195Z,1005.36
2016-11-23T13:27:55.833Z,1005.38
2016-11-23T13:29:29.854Z,1005.4
2016-11-23T13:31:03.330Z,1005.42
2016-11-23T13:32:56.141Z,1005.47
2016-11-23T13:34:29.742Z,1005.5
2016-11-23T13:36:03.628Z,1005.52
2016-11-23T13:37:37.938Z,1005.53
2016-11-23T13:39:11.124Z,1005.59
2016-11-23T13:40:40.933Z,1005.53
2016-11-23T13:42:14.289Z,1005.54
2016-11-23T13:43:47.306Z,1005.6
2016-11-23T13:45:20.695Z,1005.56
2016-11-23T13:46:54.738Z,1005.56
2016-11-23T13:48:28.822Z,1005.51
2016-11-23T13:50:02.461Z,1005.5
2016-11-23T13:51:35.823Z,1005.51
2016-11-23T13:53:10.038Z,1005.5
2016-11-23T13:54:43.754Z,1005.49
2016-11-23T13:56:17.937Z,1005.59
2016-11-23T13:58:19.192Z,1005.56
2016-11-23T13:59:52.522Z,1005.55
2016-11-23T14:01:26.059Z,1005.54
2016-11-23T14:02:59.657Z,1005.56
2016-11-23T14:04:33.492Z,1005.56
2016-11-23T14:06:07.181Z,1005.57
2016-11-23T14:07:40.446Z,1005.6
2016-11-23T14:09:14.388Z,1005.57
2016-11-23T14:10:48.118Z,1005.6
2016-11-23T14:12:21.937Z,1005.62
2016-11-23T14:13:55.821Z,1005.65
2016-11-23T14:15:29.013Z,1005.67
2016-11-23T14:17:02.874Z,1005.71
2016-11-23T14:18:37.011Z,1005.68
2016-11-23T14:20:10.618Z,1005.71
2016-11-23T14:21:44.272Z,1005.65
2016-11-23T14:23:17.841Z,1005.66
2016-11-23T14:24:51.506Z,1005.67
2016-11-23T14:26:25.020Z,1005.7
2016-11-23T14:27:58.100Z,1005.67
2016-11-23T14:29:32.223Z,1005.67
2016-11-23T14:31:08.651Z,1005.65
2016-11-23T14:32:42.719Z,1005.69
2016-11-23T14:34:16.182Z,1005.71
2016-11-23T14:36:09.359Z,1005.77
2016-11-23T14:37:43.040Z,1005.76
2016-11-23T14:39:16.808Z,1005.73
2016-11-23T14:40:51.551Z,1005.72
2016-11-23T14:42:25.679Z,1005.66
2016-11-23T14:43:59.574Z,1005.65
2016-11-23T14:45:33.672Z,1005.64
2016-11-23T14:47:06.970Z,1005.69
2016-11-23T14:48:41.378Z,1005.69
2016-11-23T14:50:15.023Z,1005.66
2016-11-23T14:51:48.772Z,1005.69
2016-11-23T14:53:22.045Z,1005.7
2016-11-23T14:54:55.509Z,1005.71
2016-11-23T14:56:23.500Z,1005.73
2016-11-23T14:57:57.061Z,1005.6
2016-11-23T14:59:30.648Z,1005.59
2016-11-23T15:01:04.525Z,1005.58
2016-11-23T15:03:05.180Z,1005.59
2016-11-23T15:04:38.899Z,1005.49
2016-11-23T15:06:12.288Z,1005.58
2016-11-23T15:07:45.640Z,1005.58
2016-11-23T15:09:18.740Z,1005.62
2016-11-23T15:10:52.223Z,1005.61
2016-11-23T15:12:25.669Z,1005.66
2016-11-23T15:13:59.140Z,1005.64
2016-11-23T15:15:32.481Z,1005.65
2016-11-23T15:17:06.518Z,1005.66
2016-11-23T15:18:39.961Z,1005.66
2016-11-23T15:20:14.036Z,1005.65
2016-11-23T15:21:47.842Z,1005.61
2016-11-23T15:23:40.838Z,1005.66
2016-11-23T15:25:14.725Z,1005.66
2016-11-23T15:26:48.169Z,1005.67
2016-11-23T15:28:21.419Z,1005.69
2016-11-23T15:29:50.830Z,1005.68
2016-11-23T15:31:05.671Z,1005.7
2016-11-23T15:32:58.594Z,1005.67
2016-11-23T15:34:32.158Z,1005.69
2016-11-23T15:36:05.776Z,1005.63
2016-11-23T15:37:39.808Z,1005.65
2016-11-23T15:45:20.988Z,1005.56
2016-11-23T15:46:35.031Z,1005.52
2016-11-23T15:48:08.763Z,1005.53
2016-11-23T15:49:43.277Z,1005.56
2016-11-23T15:51:35.632Z,1005.52
2016-11-23T15:54:51.054Z,1005.54
2016-11-23T15:56:45.593Z,1005.51
2016-11-23T15:58:19.031Z,1005.59
2016-11-23T15:59:53.070Z,1005.56
2016-11-23T16:01:26.259Z,1005.55
2016-11-23T16:03:00.854Z,1005.53
2016-11-23T16:04:34.393Z,1005.59
2016-11-23T16:06:08.360Z,1005.56
2016-11-23T16:07:42.334Z,1005.54
2016-11-23T16:09:17.279Z,1005.59
2016-11-23T16:10:50.767Z,1005.62
2016-11-23T16:12:45.821Z,1005.66
2016-11-23T16:14:19.510Z,1005.67
2016-11-23T16:15:53.001Z,1005.73
2016-11-23T16:17:27.076Z,1005.72
2016-11-23T16:19:01.107Z,1005.71
2016-11-23T16:20:34.635Z,1005.74
2016-11-23T16:22:05.102Z,1005.78
2016-11-23T16:23:35.470Z,1005.77
2016-11-23T16:24:51.178Z,1005.74
2016-11-23T16:26:44.084Z,1005.8
2016-11-23T16:28:18.085Z,1005.84
2016-11-23T16:29:51.540Z,1005.87
2016-11-23T16:31:25.677Z,1005.85
2016-11-23T16:32:59.710Z,1005.93
2016-11-23T16:34:34.000Z,1005.95
2016-11-23T16:36:08.413Z,1005.95
2016-11-23T16:37:42.165Z,1005.96
2016-11-23T16:41:14.633Z,1005.99
2016-11-23T16:42:48.403Z,1006
2016-11-23T16:44:22.913Z,1005.99
2016-11-23T16:45:56.355Z,1005.94
2016-11-23T16:47:29.819Z,1005.97
2016-11-23T16:49:03.983Z,1005.97
2016-11-23T16:51:05.806Z,1005.99
2016-11-23T16:52:39.661Z,1005.98
2016-11-23T16:54:13.117Z,1006.01
2016-11-23T16:55:46.331Z,1006.05
2016-11-23T16:57:20.579Z,1006.04
2016-11-23T16:58:53.974Z,1006.04
2016-11-23T17:00:27.696Z,1005.99
2016-11-23T17:02:01.067Z,1006.04
2016-11-23T17:03:34.883Z,1006.08
2016-11-23T17:05:27.791Z,1006.08
2016-11-23T17:07:01.783Z,1006.11
2016-11-23T17:08:35.460Z,1006.09
2016-11-23T17:10:09.685Z,1006.14
2016-11-23T17:11:42.964Z,1006.13
2016-11-23T17:13:17.274Z,1006.16
2016-11-23T17:14:51.294Z,1006.12
2016-11-23T17:16:25.186Z,1006.12
2016-11-23T17:17:59.283Z,1006.1
2016-11-23T17:19:27.759Z,1006.08
2016-11-23T17:21:02.122Z,1006.1
2016-11-23T17:22:35.481Z,1006.08
2016-11-23T17:24:08.933Z,1006.09
2016-11-23T17:25:43.347Z,1006.11
2016-11-23T17:27:18.034Z,1006.13
2016-11-23T17:28:52.772Z,1006.11
2016-11-23T17:30:25.971Z,1006.09
2016-11-23T17:31:54.064Z,1006.08
2016-11-23T17:33:27.072Z,1006.06
2016-11-23T17:35:00.872Z,1006.07
2016-11-23T17:36:34.623Z,1006.07
2016-11-23T17:38:07.884Z,1006.08
2016-11-23T17:39:41.174Z,1006.06
2016-11-23T17:41:14.937Z,1006.04
2016-11-23T17:42:48.334Z,1006.06
2016-11-23T17:44:22.251Z,1006.02
2016-11-23T17:45:55.405Z,1006.07
2016-11-23T17:47:29.265Z,1006.08
2016-11-23T17:49:02.644Z,1006.06
2016-11-23T17:50:57.409Z,1006.1
2016-11-23T17:52:31.028Z,1006.09
2016-11-23T17:54:04.321Z,1006.12
2016-11-23T17:55:38.001Z,1006.13
2016-11-23T17:57:07.683Z,1006.11
2016-11-23T17:58:21.707Z,1006.1
2016-11-23T17:59:55.620Z,1006.07
2016-11-23T18:01:48.612Z,1006.09
2016-11-23T18:03:21.898Z,1006.05
2016-11-23T18:04:55.315Z,1006.06
2016-11-23T18:06:28.668Z,1006.09
2016-11-23T18:08:02.765Z,1005.99
2016-11-23T18:09:36.991Z,1005.99
2016-11-23T18:11:10.406Z,1006.01
2016-11-23T18:12:43.749Z,1005.98
2016-11-23T18:14:17.741Z,1005.97
2016-11-23T18:15:52.152Z,1005.92
2016-11-23T18:17:26.118Z,1005.96
2016-11-23T18:18:59.807Z,1005.9
2016-11-23T18:20:34.033Z,1005.91
2016-11-23T18:22:07.919Z,1005.91
2016-11-23T18:23:42.187Z,1005.93
2016-11-23T18:25:15.553Z,1005.91
2016-11-23T18:26:49.464Z,1005.89
2016-11-23T18:28:23.136Z,1005.91
2016-11-23T18:30:17.627Z,1005.86
2016-11-23T18:31:51.095Z,1005.86
2016-11-23T18:33:23.812Z,1005.86
2016-11-23T18:34:57.907Z,1005.84
2016-11-23T18:36:31.611Z,1005.86
2016-11-23T18:38:06.115Z,1005.86
2016-11-23T18:39:40.076Z,1005.87
2016-11-23T18:41:13.744Z,1005.84
2016-11-23T18:43:12.647Z,1005.81
2016-11-23T18:44:49.459Z,1005.82
2016-11-23T18:46:25.061Z,1005.85
2016-11-23T18:47:58.639Z,1005.85
2016-11-23T18:49:32.748Z,1005.87
2016-11-23T18:51:08.170Z,1005.83
2016-11-23T18:52:37.277Z,1005.86
2016-11-23T18:54:11.601Z,1005.86
2016-11-23T18:55:46.168Z,1005.79
2016-11-23T18:57:43.224Z,1005.79
2016-11-23T18:59:24.241Z,1005.72
2016-11-23T19:00:53.419Z,1005.74
2016-11-23T19:02:27.917Z,1005.74
2016-11-23T19:04:02.355Z,1005.69
2016-11-23T19:05:36.597Z,1005.71
2016-11-23T19:07:12.160Z,1005.75
2016-11-23T19:08:46.948Z,1005.71
2016-11-23T19:10:41.356Z,1005.71
2016-11-23T19:12:15.224Z,1005.74
2016-11-23T19:13:50.543Z,1005.74
2016-11-23T19:15:25.802Z,1005.74
2016-11-23T19:17:00.289Z,1005.76
2016-11-23T19:18:33.705Z,1005.78
2016-11-23T19:20:35.700Z,1005.78
2016-11-23T19:22:06.513Z,1005.81
2016-11-23T19:23:41.799Z,1005.78
2016-11-23T19:25:16.713Z,1005.85
2016-11-23T19:26:58.854Z,1005.82
2016-11-23T19:28:34.090Z,1005.84
2016-11-23T19:30:32.945Z,1005.85
2016-11-23T19:32:04.191Z,1005.82
2016-11-23T19:33:38.513Z,1005.82
2016-11-23T19:35:12.434Z,1005.76
2016-11-23T19:36:47.854Z,1005.73
2016-11-23T19:38:22.738Z,1005.72
2016-11-23T19:40:20.662Z,1005.74
2016-11-23T19:41:54.904Z,1005.74
2016-11-23T19:43:31.030Z,1005.71
2016-11-23T19:45:09.491Z,1005.7
2016-11-23T19:46:45.286Z,1005.7
2016-11-23T19:48:00.394Z,1005.67
2016-11-23T19:49:54.571Z,1005.71
2016-11-23T19:51:29.456Z,1005.77
2016-11-23T19:53:05.124Z,1005.79
2016-11-23T19:54:39.771Z,1005.82
2016-11-23T19:56:13.597Z,1005.84
2016-11-23T19:57:43.642Z,1005.83
2016-11-23T19:58:58.879Z,1005.88
2016-11-23T20:00:34.063Z,1005.89
2016-11-23T20:02:07.940Z,1005.85
2016-11-23T20:04:01.374Z,1005.88
2016-11-23T20:05:35.080Z,1005.9
2016-11-23T20:07:09.449Z,1005.92